createdAt,value
2018-07-10T00:03:54.738Z,4.90
2018-07-10T00:07:35.450Z,5.67
2018-07-10T00:12:17.096Z,7.17
2018-07-10T00:14:45.776Z,3.83
2018-07-10T00:17:14.824Z,5.80
2018-07-10T00:19:43.496Z,5.73
2018-07-10T00:22:12.212Z,4.53
2018-07-10T00:24:40.670Z,6.60
2018-07-10T00:27:09.420Z,4.50
2018-07-10T00:29:38.509Z,8.33
2018-07-10T00:32:08.196Z,6.90
2018-07-10T00:34:36.894Z,4.27
2018-07-10T00:37:06.027Z,9.20
2018-07-10T00:39:34.700Z,5.17
2018-07-10T00:42:03.401Z,3.03
2018-07-10T00:44:32.099Z,11.20
2018-07-10T00:47:00.736Z,3.97
2018-07-10T00:49:30.124Z,7.70
2018-07-10T00:51:58.861Z,5.40
2018-07-10T00:54:27.580Z,7.80
2018-07-10T00:56:56.287Z,3.97
2018-07-10T00:59:25.141Z,6.23
2018-07-10T01:01:55.309Z,5.50
2018-07-10T01:04:24.632Z,4.80
2018-07-10T01:06:53.944Z,6.70
2018-07-10T01:09:22.634Z,2.80
2018-07-10T01:11:52.167Z,5.30
2018-07-10T01:14:20.874Z,6.27
2018-07-10T01:16:49.547Z,3.50
2018-07-10T01:19:18.808Z,4.40
2018-07-10T01:21:48.653Z,7.20
2018-07-10T01:24:18.642Z,9.23
2018-07-10T01:26:48.912Z,6.30
2018-07-10T01:29:23.532Z,9.47
2018-07-10T01:31:53.803Z,9.67
2018-07-10T01:34:23.223Z,8.17
2018-07-10T01:36:52.824Z,4.10
2018-07-10T01:39:21.566Z,7.47
2018-07-10T01:41:50.384Z,6.43
2018-07-10T01:44:19.164Z,7.23
2018-07-10T01:46:47.780Z,4.27
2018-07-10T01:49:16.566Z,6.60
2018-07-10T01:51:45.172Z,4.47
2018-07-10T01:54:14.293Z,5.87
2018-07-10T01:56:42.996Z,6.17
2018-07-10T01:59:11.729Z,2.97
2018-07-10T02:01:40.454Z,2.77
2018-07-10T02:04:10.025Z,6.20
2018-07-10T02:06:39.221Z,5.40
2018-07-10T02:09:08.402Z,7.27
2018-07-10T02:11:37.130Z,3.37
2018-07-10T02:14:07.592Z,3.27
2018-07-10T02:16:36.859Z,4.00
2018-07-10T02:19:05.649Z,3.70
2018-07-10T02:21:35.101Z,3.93
2018-07-10T02:24:03.930Z,3.63
2018-07-10T02:26:32.728Z,6.67
2018-07-10T02:29:01.428Z,4.50
2018-07-10T02:31:30.901Z,4.20
2018-07-10T02:33:59.605Z,5.33
2018-07-10T02:36:28.362Z,3.33
2018-07-10T02:38:58.529Z,8.73
2018-07-10T02:41:27.239Z,3.53
2018-07-10T02:44:02.709Z,6.33
2018-07-10T02:46:36.005Z,2.80
2018-07-10T02:49:17.296Z,5.53
2018-07-10T02:52:00.297Z,4.23
2018-07-10T02:54:32.968Z,4.80
2018-07-10T02:57:02.925Z,3.77
2018-07-10T02:59:34.474Z,5.17
2018-07-10T03:02:03.896Z,5.53
2018-07-10T03:04:34.224Z,4.53
2018-07-10T03:07:03.374Z,7.10
2018-07-10T03:09:32.115Z,5.40
2018-07-10T03:12:01.502Z,8.33
2018-07-10T03:14:30.173Z,5.53
2018-07-10T03:16:59.795Z,4.77
2018-07-10T03:19:29.349Z,13.23
2018-07-10T03:21:58.536Z,5.87
2018-07-10T03:24:27.247Z,7.90
2018-07-10T03:26:56.038Z,3.97
2018-07-10T03:29:25.113Z,2.50
2018-07-10T03:31:53.865Z,4.43
2018-07-10T03:34:22.849Z,4.20
2018-07-10T03:36:51.853Z,8.03
2018-07-10T03:39:20.577Z,7.53
2018-07-10T03:41:49.314Z,7.30
2018-07-10T03:44:19.165Z,3.90
2018-07-10T03:46:47.981Z,4.17
2018-07-10T03:49:16.678Z,7.27
2018-07-10T03:51:45.411Z,7.70
2018-07-10T03:54:14.133Z,2.67
2018-07-10T03:56:43.080Z,3.00
2018-07-10T03:59:11.872Z,8.77
2018-07-10T04:01:41.314Z,6.03
2018-07-10T04:04:10.024Z,4.70
2018-07-10T04:06:38.745Z,3.80
2018-07-10T04:09:08.428Z,6.10
2018-07-10T04:11:42.023Z,5.33
2018-07-10T04:14:10.740Z,2.50
2018-07-10T04:16:39.699Z,5.03
2018-07-10T04:19:08.416Z,4.33
2018-07-10T04:21:37.132Z,2.87
2018-07-10T04:24:12.748Z,7.93
2018-07-10T04:26:51.814Z,8.37
2018-07-10T04:29:26.805Z,4.57
2018-07-10T04:31:58.599Z,3.60
2018-07-10T04:34:29.686Z,4.23
2018-07-10T04:37:04.971Z,2.40
2018-07-10T04:39:35.329Z,6.90
2018-07-10T04:42:26.207Z,3.80
2018-07-10T04:45:02.321Z,5.90
2018-07-10T04:47:34.555Z,8.07
2018-07-10T04:50:10.186Z,3.23
2018-07-10T04:52:41.626Z,4.43
2018-07-10T04:55:12.774Z,6.20
2018-07-10T04:58:04.941Z,3.80
2018-07-10T05:00:35.865Z,6.60
2018-07-10T05:03:04.577Z,11.37
2018-07-10T05:05:34.177Z,3.70
2018-07-10T05:08:04.961Z,5.10
2018-07-10T05:10:36.207Z,4.33
2018-07-10T05:13:06.438Z,3.73
2018-07-10T05:15:36.320Z,3.77
2018-07-10T05:18:08.221Z,6.63
2018-07-10T05:20:37.126Z,5.20
2018-07-10T05:23:05.852Z,8.17
2018-07-10T05:25:37.265Z,3.57
2018-07-10T05:28:05.944Z,5.73
2018-07-10T05:30:36.173Z,6.87
2018-07-10T05:33:05.433Z,3.50
2018-07-10T05:35:34.933Z,4.77
2018-07-10T05:38:06.445Z,6.73
2018-07-10T05:40:35.160Z,3.97
2018-07-10T05:43:20.813Z,5.47
2018-07-10T05:45:49.533Z,4.73
2018-07-10T05:48:18.638Z,6.90
2018-07-10T05:50:47.335Z,4.33
2018-07-10T05:53:16.013Z,4.40
2018-07-10T05:55:47.966Z,4.47
2018-07-10T05:58:17.291Z,5.37
2018-07-10T06:00:45.988Z,7.43
2018-07-10T06:03:14.693Z,5.77
2018-07-10T06:05:43.670Z,4.00
2018-07-10T06:08:13.930Z,8.33
2018-07-10T06:10:43.063Z,4.17
2018-07-10T06:13:11.896Z,6.00
2018-07-10T06:15:40.673Z,3.93
2018-07-10T06:18:09.571Z,5.00
2018-07-10T06:20:39.874Z,2.63
2018-07-10T06:23:09.192Z,5.70
2018-07-10T06:25:37.950Z,5.57
2018-07-10T06:28:09.711Z,3.90
2018-07-10T06:30:39.443Z,6.40
2018-07-10T06:33:17.219Z,6.70
2018-07-10T06:35:48.301Z,4.07
2018-07-10T06:38:18.298Z,4.93
2018-07-10T06:40:51.252Z,3.43
2018-07-10T06:43:55.296Z,6.07
2018-07-10T06:46:45.598Z,5.83
2018-07-10T06:49:25.357Z,5.23
2018-07-10T06:52:10.070Z,10.67
2018-07-10T06:55:05.085Z,4.57
2018-07-10T06:57:34.999Z,10.47
2018-07-10T07:00:10.589Z,6.30
2018-07-10T07:02:40.089Z,6.50
2018-07-10T07:05:09.050Z,6.43
2018-07-10T07:07:39.448Z,5.30
2018-07-10T07:10:10.092Z,7.07
2018-07-10T07:12:40.560Z,5.43
2018-07-10T07:15:10.975Z,12.40
2018-07-10T07:17:43.059Z,4.53
2018-07-10T07:20:11.772Z,6.13
2018-07-10T07:22:40.477Z,7.13
2018-07-10T07:25:09.174Z,6.77
2018-07-10T07:27:37.900Z,6.20
2018-07-10T07:30:06.604Z,6.80
2018-07-10T07:32:36.129Z,4.30
2018-07-10T07:35:04.955Z,5.40
2018-07-10T07:37:37.490Z,4.80
2018-07-10T07:40:06.319Z,4.30
2018-07-10T07:42:35.081Z,6.60
2018-07-10T07:45:03.948Z,5.30
2018-07-10T07:47:32.733Z,4.83
2018-07-10T07:50:01.448Z,7.20
2018-07-10T07:52:31.397Z,6.60
2018-07-10T07:55:01.346Z,6.90
2018-07-10T07:57:30.038Z,4.57
2018-07-10T07:59:58.775Z,10.90
2018-07-10T08:02:27.500Z,7.73
2018-07-10T08:04:56.160Z,9.20
2018-07-10T08:07:26.546Z,8.83
2018-07-10T08:09:56.807Z,5.83
2018-07-10T08:12:26.524Z,6.33
2018-07-10T08:14:55.648Z,5.03
2018-07-10T08:17:25.488Z,17.87
2018-07-10T08:19:56.221Z,8.23
2018-07-10T08:22:25.705Z,6.53
2018-07-10T08:24:54.797Z,11.30
2018-07-10T08:27:24.328Z,8.63
2018-07-10T08:29:53.645Z,7.07
2018-07-10T08:32:22.313Z,7.30
2018-07-10T08:34:50.997Z,6.93
2018-07-10T08:37:19.753Z,10.73
2018-07-10T08:39:49.033Z,8.43
2018-07-10T08:42:18.079Z,7.23
2018-07-10T08:44:46.778Z,10.97
2018-07-10T08:47:15.049Z,8.77
2018-07-10T08:49:43.730Z,8.30
2018-07-10T08:52:13.311Z,5.53
2018-07-10T08:54:42.661Z,6.73
2018-07-10T08:57:11.885Z,5.37
2018-07-10T08:59:40.624Z,9.00
2018-07-10T09:02:10.001Z,7.43
2018-07-10T09:04:38.615Z,6.43
2018-07-10T09:07:09.113Z,7.40
2018-07-10T09:09:37.876Z,6.60
2018-07-10T09:12:06.550Z,5.57
2018-07-10T09:14:35.251Z,8.07
2018-07-10T09:17:03.978Z,5.83
2018-07-10T09:19:33.279Z,9.33
2018-07-10T09:22:07.445Z,12.63
2018-07-10T09:24:42.565Z,5.53
2018-07-10T09:27:13.221Z,6.20
2018-07-10T09:29:41.921Z,5.53
2018-07-10T09:32:12.083Z,5.27
2018-07-10T09:34:40.767Z,6.90
2018-07-10T09:38:13.696Z,8.80
2018-07-10T09:40:42.597Z,6.53
2018-07-10T09:43:11.394Z,6.60
2018-07-10T09:45:40.717Z,8.20
2018-07-10T09:48:10.162Z,8.33
2018-07-10T09:50:40.179Z,10.83
2018-07-10T09:53:09.520Z,9.50
2018-07-10T09:55:38.206Z,7.87
2018-07-10T09:58:08.842Z,8.53
2018-07-10T10:00:43.015Z,9.93
2018-07-10T10:03:12.971Z,8.93
2018-07-10T10:05:43.784Z,7.70
2018-07-10T10:08:13.089Z,6.73
2018-07-10T10:10:41.945Z,6.77
2018-07-10T10:13:10.631Z,7.90
2018-07-10T10:15:39.304Z,7.80
2018-07-10T10:18:09.929Z,7.53
2018-07-10T10:20:40.432Z,7.17
2018-07-10T10:23:13.420Z,10.57
2018-07-10T10:25:49.393Z,7.33
2018-07-10T10:28:19.755Z,9.87
2018-07-10T10:30:48.409Z,7.03
2018-07-10T10:33:17.719Z,5.67
2018-07-10T10:35:46.416Z,11.33
2018-07-10T10:38:16.682Z,11.70
2018-07-10T10:40:47.369Z,6.67
2018-07-10T10:43:16.572Z,6.93
2018-07-10T10:45:45.662Z,6.87
2018-07-10T10:48:15.913Z,7.77
2018-07-10T10:50:48.245Z,10.33
2018-07-10T10:53:17.809Z,11.33
2018-07-10T10:55:47.115Z,8.37
2018-07-10T10:58:15.850Z,10.83
2018-07-10T11:00:45.200Z,8.87
2018-07-10T11:03:15.391Z,9.40
2018-07-10T11:05:45.604Z,14.07
2018-07-10T11:08:14.776Z,6.00
2018-07-10T11:10:44.929Z,9.43
2018-07-10T11:13:15.657Z,11.40
2018-07-10T11:15:45.893Z,14.73
2018-07-10T11:18:39.858Z,5.97
2018-07-10T11:21:13.902Z,10.27
2018-07-10T11:23:53.003Z,11.67
2018-07-10T11:26:33.330Z,13.87
2018-07-10T11:29:03.038Z,13.87
2018-07-10T11:31:31.725Z,9.27
2018-07-10T11:34:00.438Z,9.20
2018-07-10T11:36:29.401Z,7.57
2018-07-10T11:39:05.785Z,12.43
2018-07-10T11:41:41.470Z,10.40
2018-07-10T11:44:10.141Z,9.40
2018-07-10T11:46:39.225Z,10.17
2018-07-10T11:49:08.202Z,8.43
2018-07-10T11:51:36.929Z,7.63
2018-07-10T11:54:06.251Z,12.97
2018-07-10T11:56:34.928Z,15.73
2018-07-10T11:59:04.277Z,8.17
2018-07-10T12:01:34.532Z,7.90
2018-07-10T12:04:04.968Z,10.43
2018-07-10T12:06:43.530Z,10.03
2018-07-10T12:09:12.239Z,10.13
2018-07-10T12:11:40.867Z,11.00
2018-07-10T12:14:09.590Z,10.30
2018-07-10T12:16:38.945Z,7.53
2018-07-10T12:19:08.027Z,10.07
2018-07-10T12:21:37.320Z,8.13
2018-07-10T12:24:06.853Z,6.30
2018-07-10T12:26:36.533Z,5.67
2018-07-10T12:29:05.212Z,8.37
2018-07-10T12:31:34.470Z,10.50
2018-07-10T12:34:03.169Z,8.50
2018-07-10T12:36:31.809Z,10.63
2018-07-10T12:39:00.486Z,10.13
2018-07-10T12:41:29.251Z,10.23
2018-07-10T12:43:57.984Z,11.10
2018-07-10T12:46:26.664Z,8.10
2018-07-10T12:48:55.741Z,10.57
2018-07-10T12:51:24.490Z,12.90
2018-07-10T12:53:53.280Z,14.10
2018-07-10T12:56:22.789Z,13.70
2018-07-10T12:58:51.537Z,10.17
2018-07-10T13:01:20.264Z,13.47
2018-07-10T13:03:49.974Z,7.97
2018-07-10T13:06:19.938Z,10.73
2018-07-10T13:08:48.621Z,8.60
2018-07-10T13:11:17.299Z,12.33
2018-07-10T13:13:46.554Z,13.43
2018-07-10T13:16:15.265Z,11.23
2018-07-10T13:18:45.500Z,10.80
2018-07-10T13:21:14.222Z,9.77
2018-07-10T13:23:42.513Z,7.73
2018-07-10T13:26:12.018Z,7.30
2018-07-10T13:28:40.700Z,14.80
2018-07-10T13:31:09.472Z,11.70
2018-07-10T13:33:38.206Z,10.23
2018-07-10T13:36:06.931Z,11.80
2018-07-10T13:38:35.664Z,16.60
2018-07-10T13:41:04.349Z,13.40
2018-07-10T13:43:33.019Z,18.33
2018-07-10T13:46:01.767Z,17.00
2018-07-10T13:48:30.562Z,10.37
2018-07-10T13:50:59.299Z,10.37
2018-07-10T13:53:28.036Z,16.80
2018-07-10T13:55:56.739Z,12.63
2018-07-10T13:58:26.997Z,12.50
2018-07-10T14:01:01.214Z,14.70
2018-07-10T14:03:30.263Z,17.80
2018-07-10T14:05:59.625Z,12.20
2018-07-10T14:08:28.711Z,14.77
2018-07-10T14:10:57.389Z,11.83
2018-07-10T14:13:26.135Z,13.87
2018-07-10T14:15:54.876Z,13.53
2018-07-10T14:18:24.382Z,14.80
2018-07-10T14:20:55.591Z,18.23
2018-07-10T14:23:24.260Z,11.93
2018-07-10T14:25:53.254Z,10.83
2018-07-10T14:28:22.134Z,13.87
2018-07-10T14:30:50.873Z,14.00
2018-07-10T14:33:20.222Z,14.40
2018-07-10T14:35:48.906Z,14.10
2018-07-10T14:38:20.330Z,14.17
2018-07-10T14:40:49.973Z,16.30
2018-07-10T14:43:21.608Z,14.87
2018-07-10T14:45:51.864Z,18.63
2018-07-10T14:48:20.744Z,16.40
2018-07-10T14:50:52.902Z,12.23
2018-07-10T14:53:21.674Z,15.17
2018-07-10T14:55:50.445Z,13.10
2018-07-10T14:58:19.196Z,18.03
2018-07-10T15:00:47.893Z,14.83
2018-07-10T15:03:16.728Z,15.20
2018-07-10T15:05:45.365Z,8.23
2018-07-10T15:08:14.117Z,9.70
2018-07-10T15:10:42.806Z,10.80
2018-07-10T15:13:12.202Z,14.00
2018-07-10T15:15:40.928Z,10.93
2018-07-10T15:18:16.237Z,19.83
2018-07-10T15:20:44.873Z,7.77
2018-07-10T15:23:14.126Z,10.20
2018-07-10T15:25:42.945Z,7.43
2018-07-10T15:28:11.652Z,9.03
2018-07-10T15:30:40.346Z,11.03
2018-07-10T15:33:09.041Z,9.23
2018-07-10T15:35:38.563Z,10.13
2018-07-10T15:38:07.245Z,8.33
2018-07-10T15:40:36.394Z,6.83
2018-07-10T15:43:05.101Z,8.90
2018-07-10T15:45:33.732Z,11.83
2018-07-10T15:48:03.555Z,5.60
2018-07-10T15:50:32.272Z,11.33
2018-07-10T15:53:00.964Z,10.03
2018-07-10T15:55:30.250Z,6.70
2018-07-10T15:57:59.141Z,7.00
2018-07-10T16:00:27.440Z,9.20
2018-07-10T16:02:56.482Z,12.67
2018-07-10T16:05:25.268Z,8.13
2018-07-10T16:08:14.533Z,11.10
2018-07-10T16:10:45.543Z,8.13
2018-07-10T16:13:15.286Z,9.30
2018-07-10T16:15:43.521Z,8.37
2018-07-10T16:18:12.468Z,6.60
2018-07-10T16:20:43.057Z,4.40
2018-07-10T16:23:12.750Z,6.57
2018-07-10T16:25:43.489Z,8.17
2018-07-10T16:28:17.864Z,8.73
2018-07-10T16:30:49.376Z,6.87
2018-07-10T16:33:26.157Z,3.47
2018-07-10T16:35:55.365Z,7.60
2018-07-10T16:38:24.062Z,5.63
2018-07-10T16:40:52.874Z,6.53
2018-07-10T16:43:26.776Z,8.73
2018-07-10T16:45:56.045Z,3.87
2018-07-10T16:48:33.327Z,4.20
2018-07-10T16:51:07.662Z,6.43
2018-07-10T16:53:37.725Z,5.42
2018-07-10T16:56:07.406Z,3.90
2018-07-10T16:58:39.389Z,7.00
2018-07-10T17:01:08.595Z,6.27
2018-07-10T17:03:37.641Z,4.87
2018-07-10T17:06:06.475Z,5.90
2018-07-10T17:08:35.550Z,6.97
2018-07-10T17:11:04.264Z,4.87
2018-07-10T17:13:32.996Z,4.60
2018-07-10T17:16:02.690Z,5.27
2018-07-10T17:18:31.409Z,5.63
2018-07-10T17:21:00.639Z,6.40
2018-07-10T17:23:29.329Z,5.87
2018-07-10T17:25:58.090Z,5.50
2018-07-10T17:28:26.818Z,5.10
2018-07-10T17:30:55.697Z,3.10
2018-07-10T17:33:24.418Z,4.80
2018-07-10T17:35:53.843Z,7.27
2018-07-10T17:38:22.564Z,4.53
2018-07-10T17:40:51.893Z,6.07
2018-07-10T17:43:20.392Z,5.77
2018-07-10T17:45:49.097Z,5.77
2018-07-10T17:48:18.078Z,5.13
2018-07-10T17:50:48.999Z,3.80
2018-07-10T17:53:17.762Z,4.37
2018-07-10T17:55:47.233Z,2.73
2018-07-10T17:58:18.978Z,3.10
2018-07-10T18:00:47.677Z,2.93
2018-07-10T18:03:16.352Z,2.90
2018-07-10T18:05:45.552Z,2.37
2018-07-10T18:08:14.503Z,4.10
2018-07-10T18:10:43.193Z,2.80
2018-07-10T18:13:12.677Z,4.03
2018-07-10T18:15:41.790Z,4.50
2018-07-10T18:18:11.375Z,3.57
2018-07-10T18:20:40.041Z,1.00
2018-07-10T18:23:08.415Z,1.03
2018-07-10T18:25:37.052Z,2.93
2018-07-10T18:28:05.796Z,2.67
2018-07-10T18:30:34.606Z,1.93
2018-07-10T18:33:03.313Z,1.30
2018-07-10T18:35:32.209Z,1.60
2018-07-10T18:38:02.896Z,1.33
2018-07-10T18:40:31.693Z,1.20
2018-07-10T18:43:00.370Z,1.60
2018-07-10T18:45:29.109Z,0.50
2018-07-10T18:47:57.829Z,2.97
2018-07-10T18:50:26.526Z,2.97
2018-07-10T18:52:56.004Z,2.10
2018-07-10T18:55:24.985Z,1.47
2018-07-10T18:58:04.012Z,0.70
2018-07-10T19:00:46.030Z,0.73
2018-07-10T19:03:14.814Z,1.33
2018-07-10T19:05:48.486Z,2.40
2018-07-10T19:08:17.252Z,0.77
2018-07-10T19:10:47.874Z,1.10
2018-07-10T19:13:18.396Z,1.50
2018-07-10T19:15:48.237Z,1.20
2018-07-10T19:18:17.714Z,1.13
2018-07-10T19:20:57.665Z,1.40
2018-07-10T19:23:37.451Z,1.37
2018-07-10T19:26:07.189Z,2.57
2018-07-10T19:28:36.169Z,1.93
2018-07-10T19:31:11.813Z,1.50
2018-07-10T19:33:42.524Z,3.50
2018-07-10T19:36:11.222Z,2.47
2018-07-10T19:38:40.394Z,1.27
2018-07-10T19:41:09.738Z,0.77
2018-07-10T19:43:38.417Z,2.73
2018-07-10T19:46:07.148Z,1.57
2018-07-10T19:48:36.018Z,1.07
2018-07-10T19:51:06.914Z,0.97
2018-07-10T19:53:36.868Z,1.23
2018-07-10T19:56:05.624Z,1.10
2018-07-10T19:58:36.295Z,2.57
2018-07-10T20:01:17.258Z,3.83
2018-07-10T20:04:02.102Z,3.70
2018-07-10T20:06:43.732Z,1.30
2018-07-10T20:09:18.325Z,0.70
2018-07-10T20:12:20.759Z,1.00
2018-07-10T20:14:57.242Z,1.00
2018-07-10T20:17:28.693Z,0.90
2018-07-10T20:20:07.129Z,0.90
2018-07-10T20:22:59.455Z,1.80
2018-07-10T20:25:37.256Z,1.10
2018-07-10T20:28:13.155Z,1.80
2018-07-10T20:31:16.344Z,1.73
2018-07-10T20:35:54.131Z,2.70
2018-07-10T20:38:23.684Z,1.10
2018-07-10T20:40:54.474Z,2.83
2018-07-10T20:43:23.998Z,1.03
2018-07-10T20:45:55.398Z,3.33
2018-07-10T20:48:40.700Z,3.03
2018-07-10T20:51:10.856Z,2.47
2018-07-10T20:53:45.643Z,1.27
2018-07-10T20:56:31.126Z,2.20
2018-07-10T21:00:07.934Z,3.00
2018-07-10T21:02:51.257Z,2.40
2018-07-10T21:05:24.428Z,2.40
2018-07-10T21:08:01.615Z,1.37
2018-07-10T21:10:35.156Z,2.10
2018-07-10T21:13:09.492Z,1.07
2018-07-10T21:16:53.758Z,1.43
2018-07-10T21:19:31.109Z,1.90
2018-07-10T21:22:13.201Z,0.70
2018-07-10T21:24:47.904Z,1.00
2018-07-10T21:27:23.717Z,1.20
2018-07-10T21:30:02.725Z,0.90
2018-07-10T21:32:40.053Z,1.43
2018-07-10T21:35:09.822Z,0.70
2018-07-10T21:38:56.592Z,1.10
2018-07-10T21:42:37.173Z,1.17
2018-07-10T21:47:17.855Z,1.73
2018-07-10T21:49:50.489Z,2.90
2018-07-10T21:52:19.234Z,1.93
2018-07-10T21:54:47.940Z,1.23
2018-07-10T21:57:18.150Z,1.07
2018-07-10T21:59:51.638Z,1.77
2018-07-10T22:02:20.268Z,1.70
2018-07-10T22:04:51.628Z,1.80
2018-07-10T22:07:20.520Z,1.43
2018-07-10T22:09:49.516Z,2.23
2018-07-10T22:12:20.305Z,1.83
2018-07-10T22:14:49.768Z,2.30
2018-07-10T22:17:24.011Z,1.73
2018-07-10T22:19:54.760Z,2.37
2018-07-10T22:22:30.417Z,1.23
2018-07-10T22:25:04.238Z,1.50
2018-07-10T22:27:32.547Z,1.60
2018-07-10T22:30:07.065Z,1.10
2018-07-10T22:32:44.749Z,1.50
2018-07-10T22:35:14.868Z,2.00
2018-07-10T22:37:43.525Z,2.10
2018-07-10T22:40:12.198Z,1.30
2018-07-10T22:42:40.808Z,1.67
2018-07-10T22:45:10.240Z,2.27
2018-07-10T22:47:40.579Z,1.77
2018-07-10T22:50:21.391Z,1.77
2018-07-10T22:52:59.461Z,1.83
2018-07-10T22:55:31.110Z,1.77
2018-07-10T22:58:05.101Z,2.43
2018-07-10T23:00:36.529Z,2.47
2018-07-10T23:03:23.115Z,2.17
2018-07-10T23:05:52.763Z,2.43
2018-07-10T23:08:34.960Z,2.70
2018-07-10T23:11:05.834Z,2.07
2018-07-10T23:13:40.481Z,3.33
2018-07-10T23:16:09.370Z,2.10
2018-07-10T23:18:38.241Z,2.60
2018-07-10T23:21:07.416Z,3.93
2018-07-10T23:23:36.130Z,1.77
2018-07-10T23:26:04.888Z,2.67
2018-07-10T23:28:34.781Z,2.00
2018-07-10T23:31:04.235Z,3.13
2018-07-10T23:33:32.962Z,2.57
2018-07-10T23:36:03.215Z,3.50
2018-07-10T23:38:40.678Z,2.77
2018-07-10T23:41:15.304Z,2.70
2018-07-10T23:43:46.803Z,3.33
2018-07-10T23:46:21.493Z,3.10
2018-07-10T23:48:53.151Z,2.90
2018-07-10T23:51:21.872Z,4.10
2018-07-10T23:53:51.896Z,3.70
2018-07-10T23:56:21.779Z,3.73
2018-07-10T23:58:51.022Z,5.03
